Time;durP1;ratioP1;P1;durP2;ratioP2;P2;SDS_P1;SDS_P2;PMS_P1;PMS_P2;Temp;Humidity;BMP_temperature;BMP_pressure;BME280_temperature;BME280_humidity;BME280_pressure;Samples;Min_cycle;Max_cycle;Signal;HPM_P1;HPM_P2
2022/11/19 00:01:44;;;;;;;1.85;0.77;;;;;;;15.11;50.04;92194.91;5051636;28;20045;-86
2022/11/19 00:04:10;;;;;;;3.42;1.00;;;;;;;15.10;49.88;92190.72;5068791;28;20047;-86
2022/11/19 00:06:35;;;;;;;1.48;0.75;;;;;;;15.13;49.86;92197.09;5067862;28;20056;-86
2022/11/19 00:09:00;;;;;;;2.60;0.75;;;;;;;15.14;49.85;92190.41;5069334;28;20036;-88
2022/11/19 00:14:11;;;;;;;1.80;0.90;;;;;;;15.10;49.85;92188.00;5053958;28;20410;-86
2022/11/19 00:16:37;;;;;;;3.83;1.10;;;;;;;15.09;50.43;92200.84;5046509;28;20051;-86
2022/11/19 00:19:02;;;;;;;2.53;0.80;;;;;;;15.11;49.91;92199.59;5080868;28;20040;-87
2022/11/19 00:21:27;;;;;;;1.90;1.17;;;;;;;15.12;50.05;92201.06;5066197;28;20043;-86
2022/11/19 00:23:53;;;;;;;2.97;1.27;;;;;;;15.12;49.87;92212.69;5089014;28;20044;-86
2022/11/19 00:26:18;;;;;;;1.25;0.73;;;;;;;15.13;50.06;92213.44;5058577;28;20037;-87
2022/11/19 00:28:44;;;;;;;3.45;0.95;;;;;;;15.14;49.96;92215.63;5051176;28;20083;-86
2022/11/19 00:31:11;;;;;;;3.33;1.05;;;;;;;15.16;49.98;92215.84;5066770;28;20256;-86
2022/11/19 00:33:37;;;;;;;1.60;0.70;;;;;;;15.13;50.20;92208.72;5051371;28;20045;-86
2022/11/19 00:36:04;;;;;;;1.35;0.63;;;;;;;15.14;49.90;92209.47;5049941;28;20117;-86
2022/11/19 00:38:30;;;;;;;3.25;1.13;;;;;;;15.13;49.97;92213.44;5051529;28;20116;-86
2022/11/19 00:40:55;;;;;;;2.30;1.15;;;;;;;15.13;49.95;92213.44;5059444;28;20131;-86
2022/11/19 00:46:05;;;;;;;1.08;0.80;;;;;;;15.14;50.15;92212.19;5078312;28;20044;-86
2022/11/19 00:48:31;;;;;;;1.50;0.70;;;;;;;15.08;49.92;92221.16;5050454;28;20045;-87
2022/11/19 00:50:57;;;;;;;2.30;0.70;;;;;;;15.10;49.99;92217.91;5063714;28;20048;-86
2022/11/19 00:53:22;;;;;;;1.02;0.70;;;;;;;15.10;49.78;92223.38;5050062;28;20036;-88
2022/11/19 00:55:47;;;;;;;1.73;0.85;;;;;;;15.09;50.06;92227.34;5067516;28;20037;-87
2022/11/19 00:58:13;;;;;;;2.00;0.65;;;;;;;15.13;49.96;92232.50;5067078;28;20067;-86
2022/11/19 01:00:39;;;;;;;1.65;0.90;;;;;;;15.13;49.82;92235.22;5074550;28;20055;-86
2022/11/19 01:03:05;;;;;;;2.38;0.70;;;;;;;15.14;49.92;92237.41;5066389;28;20423;-86
2022/11/19 01:05:30;;;;;;;2.28;0.80;;;;;;;15.11;49.80;92243.88;5049847;28;20048;-86
2022/11/19 01:07:56;;;;;;;1.08;0.77;;;;;;;15.11;49.85;92243.16;5050289;28;20419;-86
2022/11/19 01:10:21;;;;;;;1.40;0.80;;;;;;;15.07;49.96;92243.44;5066401;28;20507;-86
2022/11/19 01:15:31;;;;;;;2.88;1.10;;;;;;;15.12;49.54;92256.25;5052518;28;20067;-87
2022/11/19 01:17:56;;;;;;;1.13;0.65;;;;;;;15.11;49.74;92257.50;5066726;28;20044;-87
2022/11/19 01:20:21;;;;;;;1.85;0.77;;;;;;;15.10;49.63;92258.75;5049473;28;20399;-85
2022/11/19 01:22:47;;;;;;;1.77;0.68;;;;;;;15.06;49.92;92253.59;5067288;28;20060;-87
2022/11/19 01:25:13;;;;;;;1.50;0.70;;;;;;;15.06;49.87;92261.75;5068173;28;20058;-86
2022/11/19 01:27:39;;;;;;;0.75;0.55;;;;;;;15.08;49.87;92258.53;5066740;28;20036;-87
2022/11/19 01:30:05;;;;;;;2.30;1.25;;;;;;;15.06;49.83;92261.75;5049488;28;20109;-85
2022/11/19 01:32:30;;;;;;;1.55;0.85;;;;;;;15.08;49.98;92266.69;5072141;28;20029;-87
2022/11/19 01:34:55;;;;;;;1.30;0.57;;;;;;;15.07;49.71;92273.38;5066519;28;20033;-86
2022/11/19 01:37:21;;;;;;;0.88;0.60;;;;;;;15.09;50.11;92279.78;5066052;28;20048;-86
2022/11/19 01:39:46;;;;;;;3.15;1.08;;;;;;;15.06;49.71;92278.09;5084893;28;20081;-86
2022/11/19 01:45:38;;;;;;;1.50;0.63;;;;;;;15.11;49.95;92292.88;5065462;28;20071;-86
2022/11/19 01:48:09;;;;;;;2.22;0.60;;;;;;;15.06;49.67;92302.59;5070689;28;20036;-87
2022/11/19 01:50:36;;;;;;;;;;;;;;;15.12;49.81;92296.34;5067708;28;20070;-86
2022/11/19 01:53:02;;;;;;;0.60;0.40;;;;;;;15.05;49.85;92289.50;5068078;28;20032;-86
2022/11/19 01:55:27;;;;;;;2.00;0.65;;;;;;;15.05;50.15;92290.22;5066149;28;20033;-86
2022/11/19 01:57:55;;;;;;;1.02;0.50;;;;;;;15.03;49.88;92286.56;5086458;28;20123;-86
2022/11/19 02:00:21;;;;;;;1.23;0.68;;;;;;;15.06;49.90;92285.53;5068646;28;20140;-86
2022/11/19 02:02:46;;;;;;;1.83;0.70;;;;;;;15.05;49.94;92284.06;5066408;28;20495;-86
2022/11/19 02:05:12;;;;;;;1.23;0.60;;;;;;;15.03;50.00;92286.56;5048782;28;20041;-87
2022/11/19 02:07:37;;;;;;;1.63;0.60;;;;;;;15.05;49.98;92284.06;5083957;28;20037;-86
2022/11/19 02:10:03;;;;;;;0.93;0.60;;;;;;;15.04;49.64;92280.59;5058579;28;20399;-87
2022/11/19 02:12:52;;;;;;;2.13;0.70;;;;;;;15.05;49.94;92284.06;5067594;28;20036;-86
2022/11/19 02:15:53;;;;;;;0.60;0.60;;;;;;;15.08;49.76;92293.91;5065686;28;20062;-86
2022/11/19 02:18:24;;;;;;;1.20;0.70;;;;;;;15.10;49.78;92305.03;5065341;28;20041;-85
2022/11/19 02:21:15;;;;;;;1.23;0.55;;;;;;;15.05;50.01;92292.22;5051849;28;20281;-86
2022/11/19 02:24:02;;;;;;;1.52;0.50;;;;;;;15.07;49.80;92289.72;5039677;28;20085;-87
2022/11/19 02:26:39;;;;;;;0.75;0.60;;;;;;;15.05;49.85;92292.22;5066680;28;20048;-86
2022/11/19 02:29:19;;;;;;;1.05;0.70;;;;;;;15.05;49.88;92305.81;5066321;28;20047;-86
2022/11/19 02:31:52;;;;;;;0.98;0.60;;;;;;;15.05;49.88;92292.94;5065787;28;20506;-86
2022/11/19 02:34:31;;;;;;;0.50;0.45;;;;;;;15.09;49.92;92298.09;5048570;28;20495;-86
2022/11/19 02:37:00;;;;;;;0.80;0.50;;;;;;;15.06;49.80;92304.56;5065770;28;20039;-86
2022/11/19 02:39:34;;;;;;;1.05;0.63;;;;;;;15.06;49.70;92304.56;5048223;28;20568;-86
2022/11/19 02:42:07;;;;;;;1.00;0.57;;;;;;;15.04;50.20;92305.09;5076420;28;20100;-86
2022/11/19 02:44:57;;;;;;;1.05;0.77;;;;;;;15.03;50.01;92300.16;5066850;28;20036;-85
2022/11/19 02:47:26;;;;;;;0.70;0.70;;;;;;;15.05;49.85;92308.53;5044960;28;20111;-86
2022/11/19 02:49:53;;;;;;;0.52;0.50;;;;;;;15.05;50.01;92316.72;5066019;28;20036;-86
2022/11/19 02:52:19;;;;;;;1.67;0.70;;;;;;;15.04;49.46;92318.69;5048027;28;20048;-86
2022/11/19 02:54:44;;;;;;;0.68;0.65;;;;;;;15.03;50.12;92316.50;5048613;28;20056;-86
2022/11/19 02:57:10;;;;;;;1.20;0.60;;;;;;;15.05;49.79;92319.44;5066230;28;20041;-86
2022/11/19 03:05:21;;;;;;;0.70;0.70;;;;;;;15.02;49.77;92326.63;5068102;28;20040;-86
2022/11/19 03:07:46;;;;;;;0.73;0.40;;;;;;;15.02;49.90;92332.09;5057170;28;20044;-85
2022/11/19 03:10:12;;;;;;;0.70;0.52;;;;;;;15.03;49.81;92340.97;5034867;28;20055;-86
2022/11/19 03:12:45;;;;;;;0.65;0.52;;;;;;;15.02;50.04;92334.06;5052405;28;20070;-85
2022/11/19 03:18:32;;;;;;;1.75;0.55;;;;;;;15.05;49.62;92339.22;5070273;28;20557;-88
2022/11/19 03:21:00;;;;;;;;;;;;;;;15.07;49.64;92347.59;5069162;28;20544;-86
2022/11/19 03:23:32;;;;;;;0.60;0.60;;;;;;;15.03;49.78;92349.16;5051392;28;19963;-87
2022/11/19 03:26:11;;;;;;;0.60;0.57;;;;;;;15.01;49.47;92351.66;5051042;28;20487;-86
2022/11/19 03:28:36;;;;;;;1.20;0.70;;;;;;;15.00;49.95;92353.63;5051565;28;20522;-87
2022/11/19 03:31:03;;;;;;;0.75;0.60;;;;;;;15.02;49.79;92361.28;5072333;28;20066;-86
2022/11/19 03:33:29;;;;;;;0.82;0.60;;;;;;;15.01;49.75;92371.44;5051478;28;20040;-86
2022/11/19 03:35:58;;;;;;;0.85;0.57;;;;;;;15.00;49.87;92374.66;5069117;28;20036;-87
2022/11/19 03:38:35;;;;;;;1.10;0.60;;;;;;;15.00;49.80;92367.25;5067008;28;20045;-86
2022/11/19 03:41:01;;;;;;;2.38;0.85;;;;;;;15.01;50.08;92378.84;5068961;28;20201;-86
2022/11/19 03:43:28;;;;;;;0.43;0.43;;;;;;;14.99;49.81;92376.66;5050607;28;20487;-86
2022/11/19 03:45:53;;;;;;;1.30;0.70;;;;;;;15.02;49.73;92380.34;5035117;28;20057;-87
2022/11/19 03:48:19;;;;;;;0.55;0.50;;;;;;;15.00;49.54;92380.09;5068095;28;20036;-86
2022/11/19 03:51:00;;;;;;;0.70;0.50;;;;;;;15.01;49.73;92387.03;5051784;28;20055;-86
2022/11/19 03:53:26;;;;;;;0.95;0.82;;;;;;;15.01;49.68;92395.94;5069333;28;20062;-86
2022/11/19 03:55:57;;;;;;;0.90;0.65;;;;;;;15.00;49.82;92396.44;5052072;28;20547;-86
2022/11/19 03:58:25;;;;;;;0.95;0.65;;;;;;;15.00;49.63;92402.63;5085752;28;22251;-86
2022/11/19 04:00:50;;;;;;;2.60;0.82;;;;;;;15.03;49.66;92392.69;5054770;28;20047;-86
2022/11/19 04:03:16;;;;;;;0.80;0.50;;;;;;;15.02;49.54;92394.69;5053747;28;20045;-86
2022/11/19 04:05:41;;;;;;;0.40;0.30;;;;;;;15.05;49.67;92396.38;5047721;28;20376;-86
2022/11/19 04:08:06;;;;;;;0.88;0.60;;;;;;;15.03;49.61;92398.88;5066123;28;20040;-87
2022/11/19 04:10:32;;;;;;;1.10;0.55;;;;;;;14.98;49.75;92396.94;5067681;28;20043;-86
2022/11/19 04:12:57;;;;;;;1.42;0.70;;;;;;;14.99;49.48;92403.88;5064276;28;20043;-86
2022/11/19 04:15:23;;;;;;;1.17;0.70;;;;;;;14.99;49.64;92390.25;5070441;28;20043;-85
2022/11/19 04:17:48;;;;;;;0.90;0.50;;;;;;;15.02;49.55;92402.09;5069841;28;20452;-86
2022/11/19 04:20:13;;;;;;;0.82;0.60;;;;;;;15.00;49.48;92399.91;5050749;28;20036;-86
2022/11/19 04:22:39;;;;;;;0.93;0.70;;;;;;;15.01;49.82;92408.78;5041665;28;20052;-85
2022/11/19 04:25:05;;;;;;;2.08;0.63;;;;;;;15.00;49.43;92412.75;5072246;28;20036;-86
2022/11/19 04:27:30;;;;;;;0.80;0.65;;;;;;;15.01;49.69;92406.06;5079803;28;20132;-86
2022/11/19 04:29:55;;;;;;;1.02;0.60;;;;;;;15.00;49.54;92405.34;5051219;28;20041;-86
2022/11/19 04:32:21;;;;;;;0.70;0.65;;;;;;;15.01;49.48;92412.25;5074591;28;20044;-86
2022/11/19 04:34:47;;;;;;;0.75;0.70;;;;;;;15.02;49.61;92411.00;5082032;28;20043;-86
2022/11/19 04:37:12;;;;;;;0.95;0.70;;;;;;;14.99;49.54;92406.59;5067100;28;20044;-88
2022/11/19 04:39:38;;;;;;;1.05;0.60;;;;;;;14.99;49.85;92416.72;5077658;28;20039;-86
2022/11/19 04:42:03;;;;;;;1.25;0.50;;;;;;;15.01;49.61;92411.53;5082354;28;20435;-87
2022/11/19 04:44:29;;;;;;;1.02;0.93;;;;;;;15.02;49.47;92413.00;5033655;28;20268;-87
2022/11/19 04:46:54;;;;;;;0.65;0.65;;;;;;;14.97;49.67;92409.06;5070397;28;20491;-86
2022/11/19 04:49:20;;;;;;;0.68;0.60;;;;;;;14.97;49.57;92414.53;5081490;28;20025;-86
2022/11/19 04:51:45;;;;;;;1.08;0.70;;;;;;;15.00;49.61;92415.47;5067438;28;20029;-86
2022/11/19 04:54:11;;;;;;;0.85;0.82;;;;;;;14.97;49.43;92419.97;5049931;28;20041;-87
2022/11/19 04:56:37;;;;;;;1.48;0.88;;;;;;;14.99;49.43;92412.03;5067545;28;20029;-87
2022/11/19 04:59:03;;;;;;;1.10;0.57;;;;;;;14.97;49.52;92422.69;5066769;28;20052;-87
2022/11/19 05:01:28;;;;;;;0.90;0.60;;;;;;;14.99;49.49;92428.34;5066609;28;20630;-86
2022/11/19 05:03:54;;;;;;;0.88;0.70;;;;;;;14.98;49.49;92423.41;5059906;28;20048;-87
2022/11/19 05:06:19;;;;;;;1.38;0.80;;;;;;;14.96;49.55;92420.47;5072484;28;20078;-87
2022/11/19 05:08:44;;;;;;;0.75;0.65;;;;;;;14.95;49.50;92427.91;5067498;28;20032;-86
2022/11/19 05:11:10;;;;;;;0.77;0.77;;;;;;;14.96;49.28;92436.81;5086595;28;20039;-86
2022/11/19 05:13:35;;;;;;;0.93;0.55;;;;;;;14.96;49.56;92434.81;5079270;28;20029;-87
2022/11/19 05:16:01;;;;;;;1.92;0.80;;;;;;;14.97;49.55;92438.28;5050406;28;20036;-85
2022/11/19 05:18:26;;;;;;;1.05;0.70;;;;;;;14.96;49.35;92439.53;5067720;28;20098;-86
2022/11/19 05:20:51;;;;;;;1.48;0.68;;;;;;;14.97;49.28;92449.91;5049933;28;20036;-87
2022/11/19 05:23:17;;;;;;;0.93;0.80;;;;;;;14.97;49.17;92449.16;5062341;28;20040;-87
2022/11/19 05:25:42;;;;;;;1.15;0.70;;;;;;;14.96;49.64;92448.44;5080759;28;20479;-86
2022/11/19 05:28:08;;;;;;;1.17;0.77;;;;;;;14.96;49.30;92450.41;5042892;28;20047;-87
2022/11/19 05:30:33;;;;;;;1.10;0.90;;;;;;;14.95;49.67;92455.13;5086846;28;20036;-86
2022/11/19 05:32:59;;;;;;;1.20;0.80;;;;;;;14.98;49.35;92458.81;5060545;28;20132;-86
2022/11/19 05:35:24;;;;;;;1.10;0.70;;;;;;;14.96;49.57;92461.28;5049191;28;20055;-86
2022/11/19 05:37:49;;;;;;;1.38;0.88;;;;;;;14.96;49.21;92453.88;5052681;28;20033;-86
2022/11/19 05:40:15;;;;;;;1.23;0.82;;;;;;;14.95;49.37;92460.56;5085854;28;20486;-86
2022/11/19 05:42:41;;;;;;;1.52;0.90;;;;;;;14.95;49.51;92462.53;5052444;28;20054;-86
2022/11/19 05:45:08;;;;;;;1.25;0.80;;;;;;;14.97;49.22;92466.22;5085446;28;20059;-86
2022/11/19 05:47:35;;;;;;;1.02;0.85;;;;;;;14.99;49.34;92471.16;5075127;28;20032;-86
2022/11/19 05:50:00;;;;;;;0.75;0.60;;;;;;;14.95;49.31;92476.88;5077336;28;20047;-86
2022/11/19 05:52:26;;;;;;;1.77;0.90;;;;;;;14.96;49.18;92470.19;5065555;28;20036;-86
2022/11/19 05:54:51;;;;;;;1.45;1.00;;;;;;;14.98;49.55;92470.41;5065994;28;20040;-87
2022/11/19 05:57:17;;;;;;;1.30;0.73;;;;;;;14.94;49.43;92459.09;5069436;28;20044;-87
2022/11/19 05:59:42;;;;;;;3.35;2.72;;;;;;;14.95;49.24;92462.53;5088421;28;20051;-86
2022/11/19 06:02:08;;;;;;;4.82;4.35;;;;;;;14.96;49.29;92477.63;5077003;28;20467;-87
2022/11/19 06:04:33;;;;;;;3.33;2.33;;;;;;;14.96;49.14;92474.91;5086061;28;20323;-86
2022/11/19 06:06:59;;;;;;;5.20;4.05;;;;;;;14.94;49.24;92480.84;5048814;28;20040;-85
2022/11/19 06:09:24;;;;;;;5.90;4.05;;;;;;;14.95;49.36;92495.94;5070649;28;20032;-88
2022/11/19 06:11:49;;;;;;;3.97;2.70;;;;;;;14.97;48.82;92493.44;5069266;28;20498;-86
2022/11/19 06:14:22;;;;;;;3.65;2.55;;;;;;;14.96;49.48;92497.41;5067762;28;20040;-87
2022/11/19 06:16:55;;;;;;;3.30;2.10;;;;;;;14.98;49.27;92494.91;5065936;28;20116;-85
2022/11/19 06:19:20;;;;;;;2.30;1.95;;;;;;;14.97;49.21;92498.88;5063491;28;20043;-86
2022/11/19 06:21:45;;;;;;;2.53;2.33;;;;;;;14.95;49.30;92506.81;5069062;28;20036;-86
2022/11/19 06:24:11;;;;;;;4.50;2.25;;;;;;;14.96;49.43;92500.13;5068467;28;20044;-86
2022/11/19 06:26:37;;;;;;;3.65;2.08;;;;;;;14.95;48.92;92492.47;5074011;28;20050;-86
2022/11/19 06:29:02;;;;;;;2.67;2.17;;;;;;;14.95;49.42;92500.63;5064982;28;20469;-88
2022/11/19 06:31:28;;;;;;;3.17;2.15;;;;;;;14.96;49.29;92513.00;5069391;28;20452;-86
2022/11/19 06:33:53;;;;;;;3.92;2.70;;;;;;;14.97;49.08;92511.75;5086676;28;20051;-85
2022/11/19 06:36:19;;;;;;;4.28;2.95;;;;;;;14.98;49.01;92510.50;5087255;28;20032;-85
2022/11/19 06:38:44;;;;;;;5.25;4.18;;;;;;;15.01;48.78;92517.66;5056771;28;20036;-85
2022/11/19 06:41:10;;;;;;;7.97;5.28;;;;;;;14.96;49.21;92521.16;5070402;28;20044;-85
2022/11/19 06:43:35;;;;;;;6.25;5.10;;;;;;;14.97;49.31;92519.91;5066166;28;20116;-85
2022/11/19 06:46:01;;;;;;;5.55;4.13;;;;;;;14.97;49.28;92517.19;5074896;28;20098;-86
2022/11/19 06:48:26;;;;;;;4.18;3.30;;;;;;;14.95;49.39;92527.84;5088655;28;20032;-86
2022/11/19 06:50:51;;;;;;;3.65;2.97;;;;;;;14.96;49.16;92511.00;5079491;28;20455;-86
2022/11/19 06:53:17;;;;;;;3.78;2.65;;;;;;;14.97;49.25;92528.81;5041516;28;20072;-87
2022/11/19 06:55:42;;;;;;;3.63;2.78;;;;;;;14.97;49.23;92528.09;5055354;28;20543;-85
2022/11/19 06:58:08;;;;;;;3.45;2.45;;;;;;;14.96;49.08;92537.50;5068290;28;20032;-87
2022/11/19 07:00:33;;;;;;;3.30;2.42;;;;;;;14.95;49.17;92539.47;5054637;28;20033;-86
2022/11/19 07:02:58;;;;;;;3.13;2.30;;;;;;;14.99;48.99;92539.19;5063989;28;20044;-86
2022/11/19 07:05:24;;;;;;;3.13;2.33;;;;;;;15.00;49.40;92544.13;5090047;28;20039;-86
2022/11/19 07:07:50;;;;;;;2.97;2.13;;;;;;;14.97;49.22;92552.56;5090733;28;20380;-86
2022/11/19 07:10:15;;;;;;;2.58;2.15;;;;;;;14.97;48.91;92558.75;5090497;28;20093;-87
2022/11/19 07:12:41;;;;;;;3.25;2.28;;;;;;;14.99;48.94;92566.41;5092678;28;20046;-86
2022/11/19 07:15:06;;;;;;;7.60;5.65;;;;;;;14.99;49.23;92560.97;5093093;28;20040;-85
2022/11/19 07:17:32;;;;;;;6.38;4.15;;;;;;;14.97;49.00;92563.47;5093822;28;20123;-85
2022/11/19 07:19:58;;;;;;;2.17;1.80;;;;;;;14.99;49.13;92558.25;5094253;28;20040;-87
2022/11/19 07:22:23;;;;;;;3.53;2.40;;;;;;;14.98;49.18;92551.31;5092982;28;20133;-86
2022/11/19 07:24:48;;;;;;;3.05;2.28;;;;;;;14.99;48.90;92558.25;5074479;28;20375;-86
2022/11/19 07:27:14;;;;;;;5.45;2.67;;;;;;;15.00;48.66;92555.03;5059784;28;20036;-86
2022/11/19 07:29:40;;;;;;;5.20;2.60;;;;;;;14.99;49.13;92556.25;5070516;28;20032;-85
2022/11/19 07:32:05;;;;;;;3.78;2.90;;;;;;;14.98;48.74;92568.41;5090904;28;20044;-87
2022/11/19 07:34:31;;;;;;;3.83;2.30;;;;;;;15.01;48.64;92572.09;5058515;28;20059;-87
2022/11/19 07:36:56;;;;;;;3.15;2.58;;;;;;;15.01;48.80;92561.94;5053972;28;20089;-87
2022/11/19 07:39:22;;;;;;;4.82;2.75;;;;;;;15.00;48.86;92557.00;5074322;28;20044;-86
2022/11/19 07:44:32;;;;;;;3.83;2.53;;;;;;;15.01;48.84;92556.50;5030870;28;20044;-86
2022/11/19 07:46:58;;;;;;;3.50;2.58;;;;;;;15.00;49.00;92560.47;5037084;28;20025;-86
2022/11/19 07:49:24;;;;;;;3.42;2.53;;;;;;;15.04;48.65;92562.91;5040635;28;20033;-85
2022/11/19 07:51:50;;;;;;;3.22;2.70;;;;;;;14.99;48.81;92561.72;5036562;28;20483;-87
2022/11/19 07:54:15;;;;;;;3.50;2.25;;;;;;;15.01;48.82;92570.09;5018911;28;20041;-86
2022/11/19 07:56:41;;;;;;;2.83;2.40;;;;;;;14.99;48.81;92567.16;5021294;28;20061;-87
2022/11/19 07:59:06;;;;;;;5.57;4.32;;;;;;;14.98;48.87;92568.41;5035674;28;20127;-87
2022/11/19 08:01:32;;;;;;;8.15;7.00;;;;;;;15.00;48.88;92560.47;5020605;28;20403;-86
2022/11/19 08:03:57;;;;;;;9.82;7.40;;;;;;;15.00;48.75;92567.88;5071230;28;20036;-86
2022/11/19 08:06:25;;;;;;;7.20;4.97;;;;;;;15.00;48.84;92546.13;5035887;28;20040;-86
2022/11/19 08:08:50;;;;;;;5.40;4.28;;;;;;;14.98;48.92;92560.22;5019472;28;20051;-86
2022/11/19 08:11:16;;;;;;;4.93;4.03;;;;;;;14.97;48.70;92558.00;5056664;28;20028;-86
2022/11/19 08:13:41;;;;;;;5.80;3.72;;;;;;;14.97;48.81;92569.63;5056402;28;20066;-86
2022/11/19 08:16:10;;;;;;;3.40;2.92;;;;;;;14.98;48.97;92570.38;5045535;28;20028;-87
2022/11/19 08:18:38;;;;;;;4.32;3.22;;;;;;;14.99;48.60;92560.97;5055643;28;20041;-87
2022/11/19 08:21:08;;;;;;;3.80;3.00;;;;;;;15.00;48.64;92567.88;5035997;28;20036;-86
2022/11/19 08:23:34;;;;;;;3.25;2.53;;;;;;;15.00;48.96;92568.63;5038299;28;20098;-89
2022/11/19 08:26:01;;;;;;;3.83;2.58;;;;;;;14.98;48.68;92568.41;5015765;28;20036;-88
2022/11/19 08:28:31;;;;;;;5.07;2.92;;;;;;;15.03;48.32;92572.31;5057744;28;20044;-88
2022/11/19 08:31:13;;;;;;;3.03;2.65;;;;;;;15.02;48.66;92571.56;5047815;28;20043;-89
2022/11/19 08:33:43;;;;;;;4.35;2.92;;;;;;;15.03;48.63;92575.03;5061958;28;20055;-88
2022/11/19 08:36:09;;;;;;;5.85;3.35;;;;;;;15.05;48.62;92581.44;5083234;28;20101;-88
2022/11/19 08:38:35;;;;;;;6.97;2.78;;;;;;;15.00;48.53;92574.06;5071240;28;20445;-88
2022/11/19 08:43:45;;;;;;;3.55;2.55;;;;;;;15.00;48.95;92584.22;5047580;28;20071;-86
2022/11/19 08:46:10;;;;;;;4.28;2.78;;;;;;;15.02;48.65;92587.16;5050299;28;20498;-86
2022/11/19 08:48:37;;;;;;;7.20;5.03;;;;;;;15.00;48.60;92587.69;5067482;28;20045;-85
2022/11/19 08:51:05;;;;;;;8.02;7.22;;;;;;;15.03;48.77;92596.81;5058611;28;20049;-85
2022/11/19 08:53:31;;;;;;;11.15;5.38;;;;;;;15.01;48.62;92591.88;5081183;28;20090;-85
2022/11/19 08:55:56;;;;;;;5.80;5.10;;;;;;;15.02;48.43;92601.53;5076058;28;20028;-85
2022/11/19 08:58:22;;;;;;;9.98;7.50;;;;;;;14.99;48.66;92602.53;5074043;28;20043;-84
2022/11/19 09:00:48;;;;;;;7.03;5.15;;;;;;;15.00;48.92;92600.53;5075933;28;20040;-84
2022/11/19 09:03:14;;;;;;;6.28;4.68;;;;;;;15.00;48.86;92601.28;5058029;28;20494;-85
2022/11/19 09:05:39;;;;;;;5.85;4.05;;;;;;;15.01;48.99;92602.03;5070909;28;20044;-85
2022/11/19 09:08:06;;;;;;;3.60;2.90;;;;;;;15.01;48.84;92596.59;5066222;28;20487;-85
2022/11/19 09:10:31;;;;;;;6.50;3.22;;;;;;;15.00;48.99;92600.53;5074066;28;20040;-85
2022/11/19 09:12:57;;;;;;;4.10;3.30;;;;;;;15.02;48.71;92606.22;5071187;28;20055;-86
2022/11/19 09:15:22;;;;;;;3.65;3.28;;;;;;;15.02;48.42;92606.97;5047262;28;20055;-85
2022/11/19 09:17:48;;;;;;;3.60;3.10;;;;;;;15.04;48.52;92609.19;5067635;28;20133;-86
2022/11/19 09:20:13;;;;;;;3.75;2.90;;;;;;;15.02;48.32;92606.97;5052295;28;20127;-85
2022/11/19 09:22:38;;;;;;;3.50;2.97;;;;;;;15.04;48.91;92611.91;5069542;28;20070;-85
2022/11/19 09:25:04;;;;;;;3.58;2.72;;;;;;;15.02;48.76;92612.41;5073223;28;20062;-86
2022/11/19 09:27:30;;;;;;;3.58;2.67;;;;;;;15.06;48.75;92617.56;5080938;28;20036;-85
2022/11/19 09:29:55;;;;;;;4.40;2.92;;;;;;;15.07;48.53;92629.94;5072257;28;20407;-85
2022/11/19 09:32:20;;;;;;;3.50;2.97;;;;;;;15.05;48.61;92627.72;5067047;28;20088;-85
2022/11/19 09:34:46;;;;;;;3.40;3.00;;;;;;;15.05;48.62;92624.25;5047463;28;20052;-84
2022/11/19 09:37:12;;;;;;;3.15;2.85;;;;;;;15.06;48.46;92621.03;5030782;28;20098;-85
2022/11/19 09:39:37;;;;;;;4.95;2.75;;;;;;;15.05;48.99;92624.25;5034343;28;20037;-85
2022/11/19 09:42:18;;;;;;;3.38;3.05;;;;;;;15.04;48.81;92639.13;5020428;28;20044;-86
2022/11/19 09:44:50;;;;;;;;;;;;;;;15.08;48.69;92629.44;5032974;28;20088;-86
2022/11/19 09:47:37;;;;;;;5.05;2.30;;;;;;;15.06;48.34;92629.19;5043828;28;19917;-85
2022/11/19 09:50:10;;;;;;;3.97;2.40;;;;;;;15.05;48.69;92627.00;5040699;28;20045;-84
2022/11/19 09:52:48;;;;;;;3.45;2.80;;;;;;;15.04;48.50;92634.41;5026820;28;20037;-84
2022/11/19 09:55:19;;;;;;;3.15;2.85;;;;;;;15.05;48.40;92637.88;5014939;28;20126;-85
2022/11/19 09:57:50;;;;;;;9.65;5.72;;;;;;;15.05;48.65;92635.16;5024131;28;20048;-85
2022/11/19 10:00:20;;;;;;;13.68;8.02;;;;;;;15.03;48.88;92638.38;5040093;28;20080;-86
2022/11/19 10:02:46;;;;;;;8.88;6.78;;;;;;;15.04;48.64;92633.66;5036881;28;20092;-85
2022/11/19 10:05:15;;;;;;;8.27;6.75;;;;;;;15.05;48.83;92637.88;5018879;28;20040;-85
2022/11/19 10:08:00;;;;;;;8.07;4.55;;;;;;;15.08;48.62;92632.16;5061318;28;20080;-86
2022/11/19 10:10:34;;;;;;;6.07;3.63;;;;;;;15.10;48.72;92626.22;5065353;28;20054;-86
2022/11/19 10:13:23;;;;;;;5.88;3.50;;;;;;;15.07;48.61;92619.06;5066721;28;20063;-85
2022/11/19 10:16:02;;;;;;;4.28;3.40;;;;;;;15.09;48.41;92622.00;5067330;28;20047;-85
2022/11/19 10:18:46;;;;;;;3.67;3.03;;;;;;;15.11;48.57;92624.22;5080169;28;20123;-85
2022/11/19 10:21:26;;;;;;;4.03;3.25;;;;;;;15.10;48.59;92620.75;5070074;28;20040;-85
2022/11/19 10:24:01;;;;;;;3.75;2.90;;;;;;;15.08;48.76;92621.28;5067657;28;20602;-85
2022/11/19 10:26:32;;;;;;;4.38;3.00;;;;;;;15.08;48.78;92615.81;5078642;28;20040;-85
2022/11/19 10:28:58;;;;;;;4.53;3.10;;;;;;;15.08;48.76;92618.53;5051298;28;20147;-85
2022/11/19 10:31:36;;;;;;;4.90;2.80;;;;;;;15.11;48.84;92599.72;5033224;28;20032;-85
2022/11/19 10:34:22;;;;;;;5.55;2.97;;;;;;;15.09;48.67;92613.84;5074851;28;20414;-85
2022/11/19 10:36:52;;;;;;;5.85;3.05;;;;;;;15.12;48.64;92606.66;5069953;28;20044;-86
2022/11/19 10:39:27;;;;;;;5.97;2.80;;;;;;;15.13;48.82;92606.13;5067961;28;20029;-85
2022/11/19 10:42:07;;;;;;;5.78;3.08;;;;;;;15.12;48.25;92603.94;5077483;28;20068;-85
2022/11/19 10:45:06;;;;;;;4.85;2.65;;;;;;;15.09;48.78;92606.41;5071376;28;20036;-85
2022/11/19 10:47:38;;;;;;;4.75;2.60;;;;;;;15.09;48.55;92608.41;5085496;28;20450;-86
2022/11/19 10:50:04;;;;;;;5.40;2.72;;;;;;;15.14;48.43;92609.59;5075379;28;20040;-84
2022/11/19 10:52:42;;;;;;;5.57;2.80;;;;;;;15.09;48.78;92614.59;5043910;28;20546;-85
2022/11/19 10:55:13;;;;;;;6.22;2.40;;;;;;;15.13;48.80;92602.69;5083331;28;20036;-86
2022/11/19 10:57:39;;;;;;;5.03;2.92;;;;;;;15.11;48.91;92605.16;5080855;28;20037;-85
2022/11/19 11:00:05;;;;;;;8.07;2.88;;;;;;;15.10;48.64;92593.53;5074961;28;20086;-86
2022/11/19 11:02:46;;;;;;;4.78;2.65;;;;;;;15.11;48.87;92600.47;5072143;28;20032;-85
2022/11/19 11:05:14;;;;;;;4.10;2.60;;;;;;;15.11;48.77;92592.31;5059855;28;20445;-85
2022/11/19 11:07:51;;;;;;;7.32;2.88;;;;;;;15.12;48.74;92603.94;5079395;28;20106;-86
2022/11/19 11:10:33;;;;;;;9.77;3.72;;;;;;;15.11;48.75;92595.03;5077441;28;20512;-85
2022/11/19 11:16:16;;;;;;;6.30;2.97;;;;;;;15.10;49.15;92577.22;5044294;28;20731;-85
2022/11/19 11:18:41;;;;;;;9.30;3.28;;;;;;;15.09;48.46;92579.19;5020943;28;20057;-85
2022/11/19 11:21:10;;;;;;;6.53;2.70;;;;;;;15.10;49.13;92577.22;5013948;28;20140;-85
2022/11/19 11:23:50;;;;;;;6.45;5.07;;;;;;;15.11;48.58;92577.94;5040894;28;20412;-86
2022/11/19 11:26:21;;;;;;;20.80;10.18;;;;;;;15.12;48.99;92577.44;5046596;28;20072;-85
2022/11/19 11:28:58;;;;;;;16.30;7.82;;;;;;;15.10;48.92;92579.94;5033987;28;20068;-86
2022/11/19 11:31:34;;;;;;;9.40;5.55;;;;;;;15.13;48.67;92576.19;5060374;28;20059;-85
2022/11/19 11:34:01;;;;;;;12.40;5.10;;;;;;;15.08;49.10;92568.81;5034710;28;20107;-85
2022/11/19 11:36:27;;;;;;;13.38;5.70;;;;;;;15.12;48.87;92565.81;5019444;28;20041;-84
2022/11/19 11:38:54;;;;;;;13.75;5.28;;;;;;;15.12;48.95;92557.66;5027294;28;20119;-85
2022/11/19 11:41:21;;;;;;;9.43;4.05;;;;;;;15.09;48.61;92556.69;5042922;28;20044;-85
2022/11/19 11:44:02;;;;;;;16.63;4.45;;;;;;;15.09;48.69;92553.97;5051122;28;20040;-85
2022/11/19 11:46:46;;;;;;;;;;;;;;;15.14;48.91;92560.59;5054806;28;20119;-85
2022/11/19 11:49:26;;;;;;;10.27;3.92;;;;;;;15.12;48.71;92550.22;5072660;28;20113;-84
2022/11/19 11:52:05;;;;;;;9.85;4.13;;;;;;;15.11;48.84;92556.91;5068570;28;20040;-85
2022/11/19 11:54:31;;;;;;;10.43;3.97;;;;;;;15.06;48.66;92552.25;5075785;28;20044;-84
2022/11/19 11:57:16;;;;;;;7.55;3.65;;;;;;;15.08;48.79;92555.22;5074164;28;20402;-85
2022/11/19 11:59:42;;;;;;;7.72;3.60;;;;;;;15.06;48.77;92553.00;5078632;28;20044;-85
2022/11/19 12:02:21;;;;;;;10.43;3.40;;;;;;;15.09;48.92;92556.69;5046634;28;20047;-85
2022/11/19 12:04:48;;;;;;;7.32;4.60;;;;;;;15.10;48.78;92550.00;5064880;28;20048;-85
2022/11/19 12:07:26;;;;;;;12.15;4.78;;;;;;;15.08;48.75;92553.22;5060331;28;20552;-85
2022/11/19 12:10:02;;;;;;;6.82;4.45;;;;;;;15.11;48.87;92556.19;5050475;28;20044;-84